sensor_id;sensor_type;location;lat;lon;timestamp;temperature;humidity
3478;DHT22;37937;61.490;23.506;2022-11-15T00:00:55;5.90;99.90
3478;DHT22;37937;61.490;23.506;2022-11-15T00:03:25;5.90;99.90
3478;DHT22;37937;61.490;23.506;2022-11-15T00:05:51;5.80;99.90
3478;DHT22;37937;61.490;23.506;2022-11-15T00:08:17;5.80;99.90
3478;DHT22;37937;61.490;23.506;2022-11-15T00:10:53;5.80;99.90
3478;DHT22;37937;61.490;23.506;2022-11-15T00:13:19;5.80;99.90
3478;DHT22;37937;61.490;23.506;2022-11-15T00:15:45;5.80;99.90
3478;DHT22;37937;61.490;23.506;2022-11-15T00:18:11;5.70;99.90
3478;DHT22;37937;61.490;23.506;2022-11-15T00:20:37;5.70;99.90
3478;DHT22;37937;61.490;23.506;2022-11-15T00:23:03;5.70;99.90
3478;DHT22;37937;61.490;23.506;2022-11-15T00:25:30;5.60;99.90
3478;DHT22;37937;61.490;23.506;2022-11-15T00:27:56;5.60;99.90
3478;DHT22;37937;61.490;23.506;2022-11-15T00:30:22;5.60;99.90
3478;DHT22;37937;61.490;23.506;2022-11-15T00:32:48;5.60;99.90
3478;DHT22;37937;61.490;23.506;2022-11-15T00:35:14;5.60;99.90
3478;DHT22;37937;61.490;23.506;2022-11-15T00:37:40;5.60;99.90
3478;DHT22;37937;61.490;23.506;2022-11-15T00:40:06;5.50;99.90
3478;DHT22;37937;61.490;23.506;2022-11-15T00:42:32;5.50;99.90
3478;DHT22;37937;61.490;23.506;2022-11-15T00:44:58;5.50;99.90
3478;DHT22;37937;61.490;23.506;2022-11-15T00:47:24;5.50;99.90
3478;DHT22;37937;61.490;23.506;2022-11-15T00:49:50;5.50;99.90
3478;DHT22;37937;61.490;23.506;2022-11-15T00:52:15;5.50;99.90
3478;DHT22;37937;61.490;23.506;2022-11-15T00:54:41;5.40;99.90
3478;DHT22;37937;61.490;23.506;2022-11-15T00:57:08;5.40;99.90
3478;DHT22;37937;61.490;23.506;2022-11-15T00:59:33;5.40;99.90
3478;DHT22;37937;61.490;23.506;2022-11-15T01:01:59;5.40;99.90
3478;DHT22;37937;61.490;23.506;2022-11-15T01:04:25;5.40;99.90
3478;DHT22;37937;61.490;23.506;2022-11-15T01:06:51;5.40;99.90
3478;DHT22;37937;61.490;23.506;2022-11-15T01:09:17;5.30;99.90
3478;DHT22;37937;61.490;23.506;2022-11-15T01:11:42;5.30;99.90
3478;DHT22;37937;61.490;23.506;2022-11-15T01:14:08;5.30;99.90
3478;DHT22;37937;61.490;23.506;2022-11-15T01:16:34;5.30;99.90
3478;DHT22;37937;61.490;23.506;2022-11-15T01:19:00;5.30;99.90
3478;DHT22;37937;61.490;23.506;2022-11-15T01:21:26;5.30;99.90
3478;DHT22;37937;61.490;23.506;2022-11-15T01:23:53;5.30;99.90
3478;DHT22;37937;61.490;23.506;2022-11-15T01:26:19;5.20;99.90
3478;DHT22;37937;61.490;23.506;2022-11-15T01:28:45;5.20;99.90
3478;DHT22;37937;61.490;23.506;2022-11-15T01:31:12;5.20;99.90
3478;DHT22;37937;61.490;23.506;2022-11-15T01:33:38;5.20;99.90
3478;DHT22;37937;61.490;23.506;2022-11-15T01:36:04;5.20;99.90
3478;DHT22;37937;61.490;23.506;2022-11-15T01:38:30;5.20;99.90
3478;DHT22;37937;61.490;23.506;2022-11-15T01:40:56;5.10;99.90
3478;DHT22;37937;61.490;23.506;2022-11-15T01:43:22;5.10;99.90
3478;DHT22;37937;61.490;23.506;2022-11-15T01:45:50;5.10;99.90
3478;DHT22;37937;61.490;23.506;2022-11-15T01:48:18;5.10;99.90
3478;DHT22;37937;61.490;23.506;2022-11-15T01:50:44;5.10;99.90
3478;DHT22;37937;61.490;23.506;2022-11-15T01:53:10;5.00;99.90
3478;DHT22;37937;61.490;23.506;2022-11-15T01:55:36;5.00;99.90
3478;DHT22;37937;61.490;23.506;2022-11-15T01:58:02;4.90;99.90
3478;DHT22;37937;61.490;23.506;2022-11-15T02:00:29;4.90;99.90
3478;DHT22;37937;61.490;23.506;2022-11-15T02:02:55;4.90;99.90
3478;DHT22;37937;61.490;23.506;2022-11-15T02:05:20;4.90;99.90
3478;DHT22;37937;61.490;23.506;2022-11-15T02:07:46;4.90;99.90
3478;DHT22;37937;61.490;23.506;2022-11-15T02:10:14;4.80;99.90
3478;DHT22;37937;61.490;23.506;2022-11-15T02:12:42;4.80;99.90
3478;DHT22;37937;61.490;23.506;2022-11-15T02:15:08;4.80;99.90
3478;DHT22;37937;61.490;23.506;2022-11-15T02:31:00;4.60;99.90
3478;DHT22;37937;61.490;23.506;2022-11-15T02:33:51;4.50;99.90
3478;DHT22;37937;61.490;23.506;2022-11-15T02:36:22;4.50;99.90
3478;DHT22;37937;61.490;23.506;2022-11-15T02:38:54;4.50;99.90
3478;DHT22;37937;61.490;23.506;2022-11-15T02:41:24;4.40;99.90
3478;DHT22;37937;61.490;23.506;2022-11-15T02:43:53;4.40;99.90
3478;DHT22;37937;61.490;23.506;2022-11-15T02:46:27;4.40;99.90
3478;DHT22;37937;61.490;23.506;2022-11-15T02:49:14;4.40;99.90
3478;DHT22;37937;61.490;23.506;2022-11-15T02:51:40;4.30;99.90
3478;DHT22;37937;61.490;23.506;2022-11-15T02:54:15;4.20;99.90
3478;DHT22;37937;61.490;23.506;2022-11-15T02:56:42;4.20;99.90
3478;DHT22;37937;61.490;23.506;2022-11-15T03:01:51;4.10;99.90
3478;DHT22;37937;61.490;23.506;2022-11-15T03:04:42;4.10;99.90
3478;DHT22;37937;61.490;23.506;2022-11-15T03:09:39;3.90;99.90
3478;DHT22;37937;61.490;23.506;2022-11-15T03:12:14;3.90;99.90
3478;DHT22;37937;61.490;23.506;2022-11-15T03:14:50;3.80;99.90
3478;DHT22;37937;61.490;23.506;2022-11-15T03:19:54;3.70;99.90
3478;DHT22;37937;61.490;23.506;2022-11-15T03:22:23;3.70;99.90
3478;DHT22;37937;61.490;23.506;2022-11-15T03:24:52;3.60;99.90
3478;DHT22;37937;61.490;23.506;2022-11-15T03:27:21;3.60;99.90
3478;DHT22;37937;61.490;23.506;2022-11-15T03:29:52;3.50;99.90
3478;DHT22;37937;61.490;23.506;2022-11-15T03:32:19;3.50;99.90
3478;DHT22;37937;61.490;23.506;2022-11-15T03:37:22;3.50;99.90
3478;DHT22;37937;61.490;23.506;2022-11-15T03:39:49;3.40;99.90
3478;DHT22;37937;61.490;23.506;2022-11-15T03:49:52;3.30;99.90
3478;DHT22;37937;61.490;23.506;2022-11-15T03:52:19;3.20;99.90
3478;DHT22;37937;61.490;23.506;2022-11-15T03:54:55;3.30;99.90
3478;DHT22;37937;61.490;23.506;2022-11-15T03:57:21;3.30;99.90
3478;DHT22;37937;61.490;23.506;2022-11-15T03:59:47;3.30;99.90
3478;DHT22;37937;61.490;23.506;2022-11-15T04:02:13;3.30;99.90
3478;DHT22;37937;61.490;23.506;2022-11-15T04:04:39;3.30;99.90
3478;DHT22;37937;61.490;23.506;2022-11-15T04:07:05;3.20;99.90
3478;DHT22;37937;61.490;23.506;2022-11-15T04:09:31;3.20;99.90
3478;DHT22;37937;61.490;23.506;2022-11-15T04:11:56;3.20;99.90
3478;DHT22;37937;61.490;23.506;2022-11-15T04:14:22;3.20;99.90
3478;DHT22;37937;61.490;23.506;2022-11-15T04:16:48;3.20;99.90
3478;DHT22;37937;61.490;23.506;2022-11-15T04:19:14;3.20;99.90
3478;DHT22;37937;61.490;23.506;2022-11-15T04:21:58;3.20;99.90
3478;DHT22;37937;61.490;23.506;2022-11-15T04:24:42;3.20;99.90
3478;DHT22;37937;61.490;23.506;2022-11-15T04:27:08;3.20;99.90
3478;DHT22;37937;61.490;23.506;2022-11-15T04:29:34;3.20;99.90
3478;DHT22;37937;61.490;23.506;2022-11-15T04:32:01;3.10;99.90
3478;DHT22;37937;61.490;23.506;2022-11-15T04:34:27;3.10;99.90
3478;DHT22;37937;61.490;23.506;2022-11-15T04:36:53;3.10;99.90
3478;DHT22;37937;61.490;23.506;2022-11-15T04:39:37;3.20;99.90
3478;DHT22;37937;61.490;23.506;2022-11-15T04:42:03;3.10;99.90
3478;DHT22;37937;61.490;23.506;2022-11-15T04:44:29;3.10;99.90
3478;DHT22;37937;61.490;23.506;2022-11-15T04:46:54;3.10;99.90
3478;DHT22;37937;61.490;23.506;2022-11-15T04:49:20;3.10;99.90
3478;DHT22;37937;61.490;23.506;2022-11-15T04:51:46;3.10;99.90
3478;DHT22;37937;61.490;23.506;2022-11-15T04:54:11;3.10;99.90
3478;DHT22;37937;61.490;23.506;2022-11-15T04:56:37;3.10;99.90
3478;DHT22;37937;61.490;23.506;2022-11-15T04:59:03;3.00;99.90
3478;DHT22;37937;61.490;23.506;2022-11-15T05:01:29;3.00;99.90
3478;DHT22;37937;61.490;23.506;2022-11-15T05:03:55;3.10;99.90
3478;DHT22;37937;61.490;23.506;2022-11-15T05:06:39;3.10;99.90
3478;DHT22;37937;61.490;23.506;2022-11-15T05:09:05;3.10;99.90
3478;DHT22;37937;61.490;23.506;2022-11-15T05:11:31;3.00;99.90
3478;DHT22;37937;61.490;23.506;2022-11-15T05:13:56;3.00;99.90
3478;DHT22;37937;61.490;23.506;2022-11-15T05:16:22;3.00;99.90
3478;DHT22;37937;61.490;23.506;2022-11-15T05:18:54;3.00;99.90
3478;DHT22;37937;61.490;23.506;2022-11-15T05:21:20;3.10;99.90
3478;DHT22;37937;61.490;23.506;2022-11-15T05:23:46;3.10;99.90
3478;DHT22;37937;61.490;23.506;2022-11-15T05:26:12;3.00;99.90
3478;DHT22;37937;61.490;23.506;2022-11-15T05:28:38;3.00;99.90
3478;DHT22;37937;61.490;23.506;2022-11-15T05:31:05;3.00;99.90
3478;DHT22;37937;61.490;23.506;2022-11-15T05:33:32;3.00;99.90
3478;DHT22;37937;61.490;23.506;2022-11-15T05:38:33;2.90;99.90
3478;DHT22;37937;61.490;23.506;2022-11-15T05:40:59;3.00;99.90
3478;DHT22;37937;61.490;23.506;2022-11-15T05:43:25;3.00;99.90
3478;DHT22;37937;61.490;23.506;2022-11-15T05:45:51;2.90;99.90
3478;DHT22;37937;61.490;23.506;2022-11-15T05:48:17;3.00;99.90
3478;DHT22;37937;61.490;23.506;2022-11-15T05:50:44;2.90;99.90
3478;DHT22;37937;61.490;23.506;2022-11-15T05:53:12;3.00;99.90
3478;DHT22;37937;61.490;23.506;2022-11-15T05:55:38;2.90;99.90
3478;DHT22;37937;61.490;23.506;2022-11-15T05:58:05;2.90;99.90
3478;DHT22;37937;61.490;23.506;2022-11-15T06:00:31;2.90;99.90
3478;DHT22;37937;61.490;23.506;2022-11-15T06:02:57;3.00;99.90
3478;DHT22;37937;61.490;23.506;2022-11-15T06:05:23;2.90;99.90
3478;DHT22;37937;61.490;23.506;2022-11-15T06:07:48;2.90;99.90
3478;DHT22;37937;61.490;23.506;2022-11-15T06:10:14;3.00;99.90
3478;DHT22;37937;61.490;23.506;2022-11-15T06:12:40;2.90;99.90
3478;DHT22;37937;61.490;23.506;2022-11-15T06:15:06;2.90;99.90
3478;DHT22;37937;61.490;23.506;2022-11-15T06:17:32;2.90;99.90
3478;DHT22;37937;61.490;23.506;2022-11-15T06:19:58;2.90;99.90
3478;DHT22;37937;61.490;23.506;2022-11-15T06:22:23;2.90;99.90
3478;DHT22;37937;61.490;23.506;2022-11-15T06:24:49;2.80;99.90
3478;DHT22;37937;61.490;23.506;2022-11-15T06:27:15;2.80;99.90
3478;DHT22;37937;61.490;23.506;2022-11-15T06:29:41;2.80;99.90
3478;DHT22;37937;61.490;23.506;2022-11-15T06:32:07;2.80;99.90
3478;DHT22;37937;61.490;23.506;2022-11-15T06:34:33;2.70;99.90
3478;DHT22;37937;61.490;23.506;2022-11-15T06:37:02;2.80;99.90
3478;DHT22;37937;61.490;23.506;2022-11-15T06:39:27;2.70;99.90
3478;DHT22;37937;61.490;23.506;2022-11-15T06:41:53;2.70;99.90
3478;DHT22;37937;61.490;23.506;2022-11-15T06:44:19;2.70;99.90
3478;DHT22;37937;61.490;23.506;2022-11-15T06:46:45;2.70;99.90
3478;DHT22;37937;61.490;23.506;2022-11-15T06:49:11;2.70;99.90
3478;DHT22;37937;61.490;23.506;2022-11-15T06:51:37;2.70;99.90
3478;DHT22;37937;61.490;23.506;2022-11-15T06:54:02;2.70;99.90
3478;DHT22;37937;61.490;23.506;2022-11-15T06:56:29;2.70;99.90
3478;DHT22;37937;61.490;23.506;2022-11-15T06:58:55;2.70;99.90
3478;DHT22;37937;61.490;23.506;2022-11-15T07:01:20;2.60;99.90
3478;DHT22;37937;61.490;23.506;2022-11-15T07:03:46;2.60;99.90
3478;DHT22;37937;61.490;23.506;2022-11-15T07:06:12;2.60;99.90
3478;DHT22;37937;61.490;23.506;2022-11-15T07:08:38;2.60;99.90
3478;DHT22;37937;61.490;23.506;2022-11-15T07:11:05;2.60;99.90
3478;DHT22;37937;61.490;23.506;2022-11-15T07:13:31;2.60;99.90
3478;DHT22;37937;61.490;23.506;2022-11-15T07:16:04;2.60;99.90
3478;DHT22;37937;61.490;23.506;2022-11-15T07:18:30;2.60;99.90
3478;DHT22;37937;61.490;23.506;2022-11-15T07:20:59;2.60;99.90
3478;DHT22;37937;61.490;23.506;2022-11-15T07:23:25;2.60;99.90
3478;DHT22;37937;61.490;23.506;2022-11-15T07:25:51;2.60;99.90
3478;DHT22;37937;61.490;23.506;2022-11-15T07:28:17;2.50;99.90
3478;DHT22;37937;61.490;23.506;2022-11-15T07:30:43;2.60;99.90
3478;DHT22;37937;61.490;23.506;2022-11-15T07:33:09;2.60;99.90
3478;DHT22;37937;61.490;23.506;2022-11-15T07:35:35;2.60;99.90
3478;DHT22;37937;61.490;23.506;2022-11-15T07:38:01;2.60;99.90
3478;DHT22;37937;61.490;23.506;2022-11-15T07:40:28;2.50;99.90
3478;DHT22;37937;61.490;23.506;2022-11-15T07:43:15;2.50;99.90
3478;DHT22;37937;61.490;23.506;2022-11-15T07:45:41;2.50;99.90
3478;DHT22;37937;61.490;23.506;2022-11-15T07:48:08;2.40;99.90
3478;DHT22;37937;61.490;23.506;2022-11-15T07:50:34;2.40;99.90
3478;DHT22;37937;61.490;23.506;2022-11-15T07:52:59;2.50;99.90
3478;DHT22;37937;61.490;23.506;2022-11-15T07:55:26;2.40;99.90
3478;DHT22;37937;61.490;23.506;2022-11-15T07:58:02;2.40;99.90
3478;DHT22;37937;61.490;23.506;2022-11-15T08:00:28;2.50;99.90
3478;DHT22;37937;61.490;23.506;2022-11-15T08:03:00;2.40;99.90
3478;DHT22;37937;61.490;23.506;2022-11-15T08:05:26;2.50;99.90
3478;DHT22;37937;61.490;23.506;2022-11-15T08:07:54;2.50;99.90
3478;DHT22;37937;61.490;23.506;2022-11-15T08:10:20;2.40;99.90
3478;DHT22;37937;61.490;23.506;2022-11-15T08:12:46;2.50;99.90
3478;DHT22;37937;61.490;23.506;2022-11-15T08:15:12;2.50;99.90
3478;DHT22;37937;61.490;23.506;2022-11-15T08:17:38;2.40;99.90
3478;DHT22;37937;61.490;23.506;2022-11-15T08:20:04;2.50;99.90
3478;DHT22;37937;61.490;23.506;2022-11-15T08:22:30;2.50;99.90
3478;DHT22;37937;61.490;23.506;2022-11-15T08:24:56;2.50;99.90
3478;DHT22;37937;61.490;23.506;2022-11-15T08:27:21;2.40;99.90
3478;DHT22;37937;61.490;23.506;2022-11-15T08:29:48;2.40;99.90
3478;DHT22;37937;61.490;23.506;2022-11-15T08:32:14;2.40;99.90
3478;DHT22;37937;61.490;23.506;2022-11-15T08:34:40;2.40;99.90
3478;DHT22;37937;61.490;23.506;2022-11-15T08:37:06;2.40;99.90
3478;DHT22;37937;61.490;23.506;2022-11-15T08:39:34;2.40;99.90
3478;DHT22;37937;61.490;23.506;2022-11-15T08:42:00;2.40;99.90
3478;DHT22;37937;61.490;23.506;2022-11-15T08:44:26;2.50;99.90
3478;DHT22;37937;61.490;23.506;2022-11-15T08:46:52;2.50;99.90
3478;DHT22;37937;61.490;23.506;2022-11-15T08:49:18;2.40;99.90
3478;DHT22;37937;61.490;23.506;2022-11-15T08:51:44;2.50;99.90
3478;DHT22;37937;61.490;23.506;2022-11-15T08:54:09;2.40;99.90
3478;DHT22;37937;61.490;23.506;2022-11-15T08:56:35;2.40;99.90
3478;DHT22;37937;61.490;23.506;2022-11-15T08:59:01;2.40;99.90
3478;DHT22;37937;61.490;23.506;2022-11-15T09:01:27;2.30;99.90
3478;DHT22;37937;61.490;23.506;2022-11-15T09:03:52;2.30;99.90
3478;DHT22;37937;61.490;23.506;2022-11-15T09:06:19;2.40;99.90
3478;DHT22;37937;61.490;23.506;2022-11-15T09:08:45;2.40;99.90
3478;DHT22;37937;61.490;23.506;2022-11-15T09:11:10;2.40;99.90
3478;DHT22;37937;61.490;23.506;2022-11-15T09:13:37;2.40;99.90
3478;DHT22;37937;61.490;23.506;2022-11-15T09:16:03;2.40;99.90
3478;DHT22;37937;61.490;23.506;2022-11-15T09:18:30;2.40;99.90
3478;DHT22;37937;61.490;23.506;2022-11-15T09:20:56;2.40;99.90
3478;DHT22;37937;61.490;23.506;2022-11-15T09:23:22;2.40;99.90
3478;DHT22;37937;61.490;23.506;2022-11-15T09:25:48;2.30;99.90
3478;DHT22;37937;61.490;23.506;2022-11-15T09:28:14;2.40;99.90
3478;DHT22;37937;61.490;23.506;2022-11-15T09:30:40;2.40;99.90
3478;DHT22;37937;61.490;23.506;2022-11-15T09:33:07;2.20;99.90
3478;DHT22;37937;61.490;23.506;2022-11-15T09:35:33;2.20;99.90
3478;DHT22;37937;61.490;23.506;2022-11-15T09:37:59;2.30;99.90
3478;DHT22;37937;61.490;23.506;2022-11-15T09:40:25;2.30;99.90
3478;DHT22;37937;61.490;23.506;2022-11-15T09:48:25;2.40;99.90
3478;DHT22;37937;61.490;23.506;2022-11-15T09:50:51;2.30;99.90
3478;DHT22;37937;61.490;23.506;2022-11-15T09:53:23;2.30;99.90
3478;DHT22;37937;61.490;23.506;2022-11-15T09:58:18;2.30;99.90
3478;DHT22;37937;61.490;23.506;2022-11-15T10:00:48;2.40;99.90
3478;DHT22;37937;61.490;23.506;2022-11-15T10:03:20;2.40;99.90
3478;DHT22;37937;61.490;23.506;2022-11-15T10:05:48;2.30;99.90
3478;DHT22;37937;61.490;23.506;2022-11-15T10:10:57;2.40;99.90
3478;DHT22;37937;61.490;23.506;2022-11-15T10:13:25;2.30;99.90
3478;DHT22;37937;61.490;23.506;2022-11-15T10:15:51;2.40;99.90
3478;DHT22;37937;61.490;23.506;2022-11-15T10:18:19;2.40;99.90
3478;DHT22;37937;61.490;23.506;2022-11-15T10:20:58;2.40;99.90
3478;DHT22;37937;61.490;23.506;2022-11-15T10:23:24;2.40;99.90
3478;DHT22;37937;61.490;23.506;2022-11-15T10:25:51;2.40;99.90
3478;DHT22;37937;61.490;23.506;2022-11-15T10:28:22;2.40;99.90
3478;DHT22;37937;61.490;23.506;2022-11-15T10:30:49;2.40;99.90
3478;DHT22;37937;61.490;23.506;2022-11-15T10:35:41;2.40;99.90
3478;DHT22;37937;61.490;23.506;2022-11-15T10:38:09;2.40;99.90
3478;DHT22;37937;61.490;23.506;2022-11-15T10:40:35;2.40;99.90
3478;DHT22;37937;61.490;23.506;2022-11-15T10:43:06;2.30;99.90
3478;DHT22;37937;61.490;23.506;2022-11-15T10:45:37;2.20;99.90
3478;DHT22;37937;61.490;23.506;2022-11-15T10:50:35;2.30;99.90
3478;DHT22;37937;61.490;23.506;2022-11-15T10:53:01;2.30;99.90
3478;DHT22;37937;61.490;23.506;2022-11-15T10:55:29;2.30;99.90
3478;DHT22;37937;61.490;23.506;2022-11-15T10:57:57;2.30;99.90
3478;DHT22;37937;61.490;23.506;2022-11-15T11:00:36;2.30;99.90
3478;DHT22;37937;61.490;23.506;2022-11-15T11:03:06;2.30;99.90
3478;DHT22;37937;61.490;23.506;2022-11-15T11:05:36;2.40;99.90
3478;DHT22;37937;61.490;23.506;2022-11-15T11:08:03;2.40;99.90
3478;DHT22;37937;61.490;23.506;2022-11-15T11:10:29;2.30;99.90
3478;DHT22;37937;61.490;23.506;2022-11-15T11:12:55;2.30;99.90
3478;DHT22;37937;61.490;23.506;2022-11-15T11:15:22;2.30;99.90
3478;DHT22;37937;61.490;23.506;2022-11-15T11:23:19;2.30;99.90
3478;DHT22;37937;61.490;23.506;2022-11-15T11:31:36;2.40;99.90
3478;DHT22;37937;61.490;23.506;2022-11-15T11:34:15;2.30;99.90
3478;DHT22;37937;61.490;23.506;2022-11-15T11:39:29;2.40;99.90
3478;DHT22;37937;61.490;23.506;2022-11-15T11:47:09;2.50;99.90
3478;DHT22;37937;61.490;23.506;2022-11-15T11:52:18;2.50;99.90
3478;DHT22;37937;61.490;23.506;2022-11-15T11:55:21;2.50;99.90
3478;DHT22;37937;61.490;23.506;2022-11-15T12:02:42;2.50;99.90
3478;DHT22;37937;61.490;23.506;2022-11-15T12:05:14;2.50;99.90
3478;DHT22;37937;61.490;23.506;2022-11-15T12:07:41;2.50;99.90
3478;DHT22;37937;61.490;23.506;2022-11-15T12:10:19;2.50;99.90
3478;DHT22;37937;61.490;23.506;2022-11-15T12:13:01;2.50;99.90
3478;DHT22;37937;61.490;23.506;2022-11-15T12:15:31;2.30;99.90
3478;DHT22;37937;61.490;23.506;2022-11-15T12:17:58;2.40;99.90
3478;DHT22;37937;61.490;23.506;2022-11-15T12:20:30;2.40;99.90
3478;DHT22;37937;61.490;23.506;2022-11-15T12:26:04;2.30;99.90
3478;DHT22;37937;61.490;23.506;2022-11-15T12:28:41;2.20;99.90
3478;DHT22;37937;61.490;23.506;2022-11-15T12:31:41;2.40;99.90
3478;DHT22;37937;61.490;23.506;2022-11-15T12:34:05;2.30;99.90
3478;DHT22;37937;61.490;23.506;2022-11-15T12:36:45;2.40;99.90
3478;DHT22;37937;61.490;23.506;2022-11-15T12:39:12;2.30;99.90
3478;DHT22;37937;61.490;23.506;2022-11-15T12:41:38;2.30;99.90
3478;DHT22;37937;61.490;23.506;2022-11-15T12:44:10;2.20;99.90
3478;DHT22;37937;61.490;23.506;2022-11-15T13:02:22;2.20;99.90
3478;DHT22;37937;61.490;23.506;2022-11-15T13:04:48;2.30;99.90
3478;DHT22;37937;61.490;23.506;2022-11-15T13:09:59;2.30;99.90
3478;DHT22;37937;61.490;23.506;2022-11-15T13:14:58;2.20;99.90
3478;DHT22;37937;61.490;23.506;2022-11-15T13:17:26;2.20;99.90
3478;DHT22;37937;61.490;23.506;2022-11-15T13:19:53;2.20;99.90
3478;DHT22;37937;61.490;23.506;2022-11-15T13:22:21;2.20;99.90
3478;DHT22;37937;61.490;23.506;2022-11-15T13:25:14;2.20;99.90
3478;DHT22;37937;61.490;23.506;2022-11-15T13:27:40;2.20;99.90
3478;DHT22;37937;61.490;23.506;2022-11-15T13:30:13;2.10;99.90
3478;DHT22;37937;61.490;23.506;2022-11-15T13:32:39;2.10;99.90
3478;DHT22;37937;61.490;23.506;2022-11-15T13:35:06;2.10;99.90
3478;DHT22;37937;61.490;23.506;2022-11-15T13:37:32;2.10;99.90
3478;DHT22;37937;61.490;23.506;2022-11-15T13:40:17;2.20;99.90
3478;DHT22;37937;61.490;23.506;2022-11-15T13:42:44;2.50;99.90
3478;DHT22;37937;61.490;23.506;2022-11-15T13:45:12;2.50;99.90
3478;DHT22;37937;61.490;23.506;2022-11-15T13:47:38;2.40;99.90
3478;DHT22;37937;61.490;23.506;2022-11-15T13:50:04;2.40;99.90
3478;DHT22;37937;61.490;23.506;2022-11-15T13:52:33;2.60;99.90
3478;DHT22;37937;61.490;23.506;2022-11-15T14:00:30;2.40;99.90
3478;DHT22;37937;61.490;23.506;2022-11-15T14:03:04;2.30;99.90
3478;DHT22;37937;61.490;23.506;2022-11-15T14:05:31;2.20;99.90
3478;DHT22;37937;61.490;23.506;2022-11-15T14:07:58;2.20;99.90
3478;DHT22;37937;61.490;23.506;2022-11-15T14:10:25;2.20;99.90
3478;DHT22;37937;61.490;23.506;2022-11-15T14:12:52;2.30;99.90
3478;DHT22;37937;61.490;23.506;2022-11-15T14:15:28;2.30;99.90
3478;DHT22;37937;61.490;23.506;2022-11-15T14:17:55;2.30;99.90
3478;DHT22;37937;61.490;23.506;2022-11-15T14:22:57;2.50;99.90
3478;DHT22;37937;61.490;23.506;2022-11-15T14:25:27;2.40;99.90
3478;DHT22;37937;61.490;23.506;2022-11-15T14:30:34;2.20;99.90
3478;DHT22;37937;61.490;23.506;2022-11-15T14:32:59;2.30;99.90
3478;DHT22;37937;61.490;23.506;2022-11-15T14:35:25;2.30;99.90
3478;DHT22;37937;61.490;23.506;2022-11-15T14:37:51;2.20;99.90
3478;DHT22;37937;61.490;23.506;2022-11-15T14:40:18;2.30;99.90
3478;DHT22;37937;61.490;23.506;2022-11-15T14:42:44;2.30;99.90
3478;DHT22;37937;61.490;23.506;2022-11-15T14:45:15;2.50;99.90
3478;DHT22;37937;61.490;23.506;2022-11-15T14:47:42;2.50;99.90
3478;DHT22;37937;61.490;23.506;2022-11-15T14:50:18;2.30;99.90
3478;DHT22;37937;61.490;23.506;2022-11-15T14:52:44;2.10;99.90
3478;DHT22;37937;61.490;23.506;2022-11-15T14:55:13;2.30;99.90
3478;DHT22;37937;61.490;23.506;2022-11-15T14:57:40;2.20;99.90
3478;DHT22;37937;61.490;23.506;2022-11-15T15:00:06;2.30;99.90
3478;DHT22;37937;61.490;23.506;2022-11-15T15:02:34;2.20;99.90
3478;DHT22;37937;61.490;23.506;2022-11-15T15:05:00;2.10;99.90
3478;DHT22;37937;61.490;23.506;2022-11-15T15:07:28;2.10;99.90
3478;DHT22;37937;61.490;23.506;2022-11-15T15:09:54;2.00;99.90
3478;DHT22;37937;61.490;23.506;2022-11-15T15:12:20;2.00;99.90
3478;DHT22;37937;61.490;23.506;2022-11-15T15:14:47;2.10;99.90
3478;DHT22;37937;61.490;23.506;2022-11-15T15:17:13;2.20;99.90
3478;DHT22;37937;61.490;23.506;2022-11-15T15:19:39;2.20;99.90
3478;DHT22;37937;61.490;23.506;2022-11-15T15:22:05;2.30;99.90
3478;DHT22;37937;61.490;23.506;2022-11-15T15:24:34;2.00;99.90
3478;DHT22;37937;61.490;23.506;2022-11-15T15:27:00;2.10;99.90
3478;DHT22;37937;61.490;23.506;2022-11-15T15:29:26;2.00;99.90
3478;DHT22;37937;61.490;23.506;2022-11-15T15:31:52;2.10;99.90
3478;DHT22;37937;61.490;23.506;2022-11-15T15:34:18;2.00;99.90
3478;DHT22;37937;61.490;23.506;2022-11-15T15:36:44;1.80;99.90
3478;DHT22;37937;61.490;23.506;2022-11-15T15:39:10;1.70;99.90
3478;DHT22;37937;61.490;23.506;2022-11-15T15:41:37;1.70;99.90
3478;DHT22;37937;61.490;23.506;2022-11-15T15:44:03;1.70;99.90
3478;DHT22;37937;61.490;23.506;2022-11-15T15:46:29;1.70;99.90
3478;DHT22;37937;61.490;23.506;2022-11-15T15:48:55;1.70;99.90
3478;DHT22;37937;61.490;23.506;2022-11-15T15:51:20;1.70;99.90
3478;DHT22;37937;61.490;23.506;2022-11-15T15:53:47;1.70;99.90
3478;DHT22;37937;61.490;23.506;2022-11-15T15:56:13;1.60;99.90
3478;DHT22;37937;61.490;23.506;2022-11-15T15:58:38;1.60;99.90
3478;DHT22;37937;61.490;23.506;2022-11-15T16:01:04;1.60;99.90
3478;DHT22;37937;61.490;23.506;2022-11-15T16:03:30;1.60;99.90
3478;DHT22;37937;61.490;23.506;2022-11-15T16:05:56;1.50;99.90
3478;DHT22;37937;61.490;23.506;2022-11-15T16:08:23;1.30;99.90
3478;DHT22;37937;61.490;23.506;2022-11-15T16:10:52;1.40;99.90
3478;DHT22;37937;61.490;23.506;2022-11-15T16:13:18;1.40;99.90
3478;DHT22;37937;61.490;23.506;2022-11-15T16:15:43;1.30;99.90
3478;DHT22;37937;61.490;23.506;2022-11-15T16:18:15;1.40;99.90
3478;DHT22;37937;61.490;23.506;2022-11-15T16:20:42;1.20;99.90
3478;DHT22;37937;61.490;23.506;2022-11-15T16:23:10;1.30;99.90
3478;DHT22;37937;61.490;23.506;2022-11-15T16:25:41;1.40;99.90
3478;DHT22;37937;61.490;23.506;2022-11-15T16:28:18;1.40;99.90
3478;DHT22;37937;61.490;23.506;2022-11-15T16:30:44;1.40;99.90
3478;DHT22;37937;61.490;23.506;2022-11-15T16:33:10;1.40;99.90
3478;DHT22;37937;61.490;23.506;2022-11-15T16:35:36;1.50;99.90
3478;DHT22;37937;61.490;23.506;2022-11-15T16:38:02;1.50;99.90
3478;DHT22;37937;61.490;23.506;2022-11-15T16:40:29;1.50;99.90
3478;DHT22;37937;61.490;23.506;2022-11-15T16:42:56;1.50;99.90
3478;DHT22;37937;61.490;23.506;2022-11-15T16:45:22;1.40;99.90
3478;DHT22;37937;61.490;23.506;2022-11-15T16:47:48;1.40;99.90
3478;DHT22;37937;61.490;23.506;2022-11-15T16:50:18;1.50;99.90
3478;DHT22;37937;61.490;23.506;2022-11-15T16:52:55;1.40;99.90
3478;DHT22;37937;61.490;23.506;2022-11-15T16:55:22;1.40;99.90
3478;DHT22;37937;61.490;23.506;2022-11-15T16:57:48;1.40;99.90
3478;DHT22;37937;61.490;23.506;2022-11-15T17:00:15;1.40;99.90
3478;DHT22;37937;61.490;23.506;2022-11-15T17:02:45;1.40;99.90
3478;DHT22;37937;61.490;23.506;2022-11-15T17:05:11;1.30;99.90
3478;DHT22;37937;61.490;23.506;2022-11-15T17:07:38;1.30;99.90
3478;DHT22;37937;61.490;23.506;2022-11-15T17:10:04;1.30;99.90
3478;DHT22;37937;61.490;23.506;2022-11-15T17:12:34;1.20;99.90
3478;DHT22;37937;61.490;23.506;2022-11-15T17:15:00;1.20;99.90
3478;DHT22;37937;61.490;23.506;2022-11-15T17:17:27;1.30;99.90
3478;DHT22;37937;61.490;23.506;2022-11-15T17:19:53;1.30;99.90
3478;DHT22;37937;61.490;23.506;2022-11-15T17:22:19;1.20;99.90
3478;DHT22;37937;61.490;23.506;2022-11-15T17:24:44;1.10;99.90
3478;DHT22;37937;61.490;23.506;2022-11-15T17:27:11;1.00;99.90
3478;DHT22;37937;61.490;23.506;2022-11-15T17:29:36;1.00;99.90
3478;DHT22;37937;61.490;23.506;2022-11-15T17:32:02;1.00;99.90
3478;DHT22;37937;61.490;23.506;2022-11-15T17:34:28;0.90;99.90
3478;DHT22;37937;61.490;23.506;2022-11-15T17:36:54;0.90;99.90
3478;DHT22;37937;61.490;23.506;2022-11-15T17:39:20;1.00;99.90